createdAt,value
2023-02-03T00:02:00.436Z,72.52
2023-02-03T00:04:27.079Z,72.73
2023-02-03T00:06:53.815Z,73.45
2023-02-03T00:09:20.994Z,74.02
2023-02-03T00:11:47.882Z,75.02
2023-02-03T00:14:14.730Z,74.72
2023-02-03T00:16:41.619Z,73.88
2023-02-03T00:19:08.249Z,73.50
2023-02-03T00:21:34.915Z,73.87
2023-02-03T00:24:01.614Z,75.10
2023-02-03T00:26:28.711Z,74.10
2023-02-03T00:28:57.665Z,74.19
2023-02-03T00:31:24.743Z,74.10
2023-02-03T00:33:57.199Z,73.72
2023-02-03T00:36:26.947Z,74.05
2023-02-03T00:38:54.247Z,74.34
2023-02-03T00:41:21.482Z,74.27
2023-02-03T00:43:49.267Z,74.43
2023-02-03T00:46:16.308Z,74.78
2023-02-03T00:48:45.465Z,74.46
2023-02-03T00:51:12.971Z,75.21
2023-02-03T00:53:39.614Z,75.19
2023-02-03T00:56:12.423Z,74.97
2023-02-03T00:58:43.343Z,74.99
2023-02-03T01:01:10.459Z,75.08
2023-02-03T01:03:37.956Z,74.63
2023-02-03T01:06:18.828Z,75.18
2023-02-03T01:08:47.485Z,74.75
2023-02-03T01:11:17.222Z,74.54
2023-02-03T01:13:45.163Z,74.61
2023-02-03T01:16:14.734Z,75.16
2023-02-03T01:18:42.862Z,75.60
2023-02-03T01:21:19.112Z,75.09
2023-02-03T01:23:46.256Z,74.85
2023-02-03T01:26:15.246Z,75.67
2023-02-03T01:28:42.488Z,75.64
2023-02-03T01:31:09.389Z,74.60
2023-02-03T01:33:36.612Z,75.31
2023-02-03T01:36:03.311Z,75.69
2023-02-03T01:38:30.421Z,74.96
2023-02-03T01:40:57.060Z,75.80
2023-02-03T01:43:36.077Z,75.40
2023-02-03T01:46:16.517Z,76.27
2023-02-03T01:48:43.528Z,76.47
2023-02-03T01:51:10.242Z,76.16
2023-02-03T01:53:37.685Z,75.57
2023-02-03T01:56:06.213Z,76.02
2023-02-03T01:58:38.109Z,75.55
2023-02-03T02:01:05.345Z,74.86
2023-02-03T02:03:40.398Z,76.31
2023-02-03T02:06:09.834Z,75.44
2023-02-03T02:08:38.604Z,75.48
2023-02-03T02:11:06.912Z,74.73
2023-02-03T02:13:35.056Z,74.89
2023-02-03T02:16:31.765Z,74.86
2023-02-03T02:19:16.640Z,75.07
2023-02-03T02:22:00.498Z,75.04
2023-02-03T02:24:56.505Z,74.89
2023-02-03T02:27:35.425Z,75.73
2023-02-03T02:30:08.251Z,75.20
2023-02-03T02:32:59.891Z,75.10
2023-02-03T02:35:50.073Z,75.46
2023-02-03T02:38:34.960Z,75.24
2023-02-03T02:41:14.205Z,74.89
2023-02-03T02:43:47.796Z,74.81
2023-02-03T02:46:24.099Z,74.47
2023-02-03T02:49:12.878Z,74.51
2023-02-03T02:51:40.844Z,74.84
2023-02-03T02:54:11.771Z,74.91
2023-02-03T02:56:41.468Z,73.62
2023-02-03T02:59:09.345Z,74.73
2023-02-03T03:01:36.131Z,73.65
2023-02-03T03:04:06.266Z,73.13
2023-02-03T03:06:59.945Z,73.36
2023-02-03T03:09:40.704Z,73.82
2023-02-03T03:12:13.695Z,73.47
2023-02-03T03:14:45.423Z,73.46
2023-02-03T03:17:20.084Z,73.87
2023-02-03T03:19:52.291Z,73.17
2023-02-03T03:22:22.860Z,72.49
2023-02-03T03:24:56.118Z,72.99
2023-02-03T03:27:29.430Z,72.83
2023-02-03T03:30:00.681Z,72.62
2023-02-03T03:32:28.100Z,72.91
2023-02-03T03:34:55.442Z,72.85
2023-02-03T03:37:34.521Z,73.88
2023-02-03T03:40:10.209Z,74.14
2023-02-03T03:43:01.332Z,73.90
2023-02-03T03:45:49.358Z,74.02
2023-02-03T03:48:17.888Z,73.75
2023-02-03T03:50:51.470Z,74.15
2023-02-03T03:53:20.363Z,73.88
2023-02-03T03:55:50.495Z,74.00
2023-02-03T03:58:23.234Z,73.81
2023-02-03T04:00:50.912Z,73.74
2023-02-03T04:03:28.258Z,73.57
2023-02-03T04:05:54.951Z,73.56
2023-02-03T04:08:21.614Z,74.50
2023-02-03T04:10:48.273Z,74.43
2023-02-03T04:13:16.123Z,74.34
2023-02-03T04:15:42.810Z,74.61
2023-02-03T04:18:12.180Z,76.11
2023-02-03T04:20:38.885Z,75.71
2023-02-03T04:23:05.768Z,74.42
2023-02-03T04:25:32.442Z,74.46
2023-02-03T04:27:59.101Z,74.13
2023-02-03T04:30:26.124Z,74.86
2023-02-03T04:32:53.539Z,74.45
2023-02-03T04:35:20.568Z,74.31
2023-02-03T04:37:47.268Z,74.36
2023-02-03T04:40:14.490Z,74.30
2023-02-03T04:42:41.872Z,73.48
2023-02-03T04:45:10.211Z,73.99
2023-02-03T04:47:37.256Z,74.21
2023-02-03T04:50:04.231Z,74.28
2023-02-03T04:52:31.235Z,74.38
2023-02-03T04:54:57.905Z,74.93
2023-02-03T04:57:24.539Z,74.98
2023-02-03T04:59:51.191Z,75.82
2023-02-03T05:02:17.862Z,75.02
2023-02-03T05:04:44.539Z,74.79
2023-02-03T05:07:11.546Z,75.64
2023-02-03T05:09:38.204Z,74.43
2023-02-03T05:12:05.121Z,74.51
2023-02-03T05:14:31.796Z,74.45
2023-02-03T05:16:58.553Z,74.88
2023-02-03T05:19:25.222Z,74.88
2023-02-03T05:21:52.016Z,74.32
2023-02-03T05:24:18.666Z,74.47
2023-02-03T05:26:45.363Z,74.07
2023-02-03T05:29:12.052Z,74.52
2023-02-03T05:31:38.772Z,73.72
2023-02-03T05:34:05.439Z,73.98
2023-02-03T05:36:32.150Z,74.26
2023-02-03T05:38:58.958Z,74.01
2023-02-03T05:41:44.382Z,74.46
2023-02-03T05:44:11.225Z,74.61
2023-02-03T05:46:37.844Z,75.34
2023-02-03T05:49:04.628Z,75.63
2023-02-03T05:51:31.244Z,75.85
2023-02-03T05:53:57.962Z,75.86
2023-02-03T05:56:24.603Z,75.92
2023-02-03T05:58:53.859Z,75.36
2023-02-03T06:01:20.567Z,75.27
2023-02-03T06:03:52.939Z,75.03
2023-02-03T06:06:19.804Z,75.47
2023-02-03T06:08:51.075Z,75.05
2023-02-03T06:11:18.025Z,75.29
2023-02-03T06:13:44.646Z,75.17
2023-02-03T06:16:11.320Z,75.42
2023-02-03T06:18:37.936Z,75.25
2023-02-03T06:21:04.760Z,75.06
2023-02-03T06:23:33.762Z,74.83
2023-02-03T06:26:00.539Z,75.58
2023-02-03T06:28:27.194Z,75.43
2023-02-03T06:30:54.074Z,74.99
2023-02-03T06:33:20.900Z,75.64
2023-02-03T06:35:47.763Z,75.36
2023-02-03T06:38:15.575Z,75.13
2023-02-03T06:40:42.181Z,75.53
2023-02-03T06:43:08.851Z,75.30
2023-02-03T06:45:35.679Z,75.60
2023-02-03T06:48:05.465Z,76.03
2023-02-03T06:50:35.921Z,75.13
2023-02-03T06:53:02.671Z,75.69
2023-02-03T06:55:29.445Z,75.43
2023-02-03T06:57:56.175Z,76.27
2023-02-03T07:00:22.937Z,75.98
2023-02-03T07:02:54.228Z,76.22
2023-02-03T07:05:22.011Z,76.23
2023-02-03T07:07:48.764Z,76.19
2023-02-03T07:10:15.655Z,76.92
2023-02-03T07:12:42.691Z,75.99
2023-02-03T07:15:10.077Z,75.72
2023-02-03T07:17:36.995Z,75.60
2023-02-03T07:20:04.661Z,76.59
2023-02-03T07:22:31.341Z,75.73
2023-02-03T07:24:57.936Z,75.97
2023-02-03T07:27:25.337Z,75.28
2023-02-03T07:29:52.011Z,74.96
2023-02-03T07:32:18.635Z,74.64
2023-02-03T07:34:45.235Z,74.79
2023-02-03T07:37:11.820Z,75.43
2023-02-03T07:39:42.309Z,74.43
2023-02-03T07:42:09.005Z,74.70
2023-02-03T07:44:38.850Z,74.69
2023-02-03T07:47:05.786Z,74.53
2023-02-03T07:49:32.687Z,74.92
2023-02-03T07:51:59.594Z,74.34
2023-02-03T07:54:27.026Z,75.02
2023-02-03T07:56:54.530Z,74.35
2023-02-03T07:59:21.949Z,74.59
2023-02-03T08:01:49.046Z,73.87
2023-02-03T08:04:17.274Z,73.37
2023-02-03T08:06:44.051Z,73.54
2023-02-03T08:09:10.718Z,73.85
2023-02-03T08:11:37.321Z,73.38
2023-02-03T08:14:04.054Z,73.79
2023-02-03T08:16:30.880Z,73.87
2023-02-03T08:18:58.316Z,73.80
2023-02-03T08:21:24.972Z,73.28
2023-02-03T08:23:51.610Z,73.79
2023-02-03T08:26:18.238Z,73.32
2023-02-03T08:28:48.831Z,73.50
2023-02-03T08:31:15.953Z,73.86
2023-02-03T08:33:42.655Z,73.89
2023-02-03T08:36:11.239Z,73.96
2023-02-03T08:38:38.983Z,74.21
2023-02-03T08:41:11.041Z,74.89
2023-02-03T08:43:38.298Z,74.89
2023-02-03T08:46:07.112Z,74.81
2023-02-03T08:48:34.865Z,75.08
2023-02-03T08:51:01.669Z,75.10
2023-02-03T08:53:28.519Z,75.37
2023-02-03T08:55:56.259Z,75.30
2023-02-03T08:58:23.042Z,74.90
2023-02-03T09:00:49.979Z,74.79
2023-02-03T09:03:16.769Z,75.72
2023-02-03T09:05:43.477Z,75.82
2023-02-03T09:08:10.198Z,75.45
2023-02-03T09:10:37.198Z,74.90
2023-02-03T09:13:03.860Z,74.55
2023-02-03T09:15:30.464Z,74.35
2023-02-03T09:17:57.784Z,74.08
2023-02-03T09:20:26.367Z,73.98
2023-02-03T09:22:54.920Z,73.89
2023-02-03T09:25:21.690Z,73.90
2023-02-03T09:27:48.437Z,74.34
2023-02-03T09:30:15.256Z,74.39
2023-02-03T09:32:41.902Z,75.41
2023-02-03T09:35:08.555Z,74.73
2023-02-03T09:37:35.196Z,74.91
2023-02-03T09:40:02.528Z,75.33
2023-02-03T09:42:51.090Z,75.32
2023-02-03T09:45:28.350Z,75.60
2023-02-03T09:48:03.629Z,75.51
2023-02-03T09:50:35.095Z,75.18
2023-02-03T09:53:12.269Z,75.17
2023-02-03T09:55:46.221Z,75.61
2023-02-03T09:58:15.671Z,75.79
2023-02-03T10:00:50.312Z,76.37
2023-02-03T10:03:24.425Z,77.31
2023-02-03T10:06:32.473Z,76.66
2023-02-03T10:09:11.331Z,76.74
2023-02-03T10:11:50.253Z,76.54
2023-02-03T10:14:38.373Z,76.40
2023-02-03T10:17:39.273Z,75.67
2023-02-03T10:20:09.008Z,75.13
2023-02-03T10:22:43.404Z,75.38
2023-02-03T10:25:30.604Z,75.13
2023-02-03T10:28:03.107Z,74.59
2023-02-03T10:30:38.301Z,74.57
2023-02-03T10:33:13.534Z,74.53
2023-02-03T10:35:45.714Z,74.23
2023-02-03T10:38:22.042Z,74.28
2023-02-03T10:40:48.784Z,74.76
2023-02-03T10:43:34.162Z,75.40
2023-02-03T10:46:00.884Z,75.78
2023-02-03T10:48:27.726Z,75.41
2023-02-03T10:50:55.891Z,75.61
2023-02-03T10:53:22.616Z,75.99
2023-02-03T10:56:00.211Z,76.58
2023-02-03T10:58:29.162Z,76.47
2023-02-03T11:01:05.016Z,76.09
2023-02-03T11:03:31.974Z,76.00
2023-02-03T11:06:05.101Z,76.05
2023-02-03T11:08:34.862Z,76.02
2023-02-03T11:11:04.745Z,75.66
2023-02-03T11:13:31.544Z,75.45
2023-02-03T11:16:06.160Z,76.14
2023-02-03T11:18:57.899Z,75.99
2023-02-03T11:21:27.741Z,75.55
2023-02-03T11:24:00.380Z,75.44
2023-02-03T11:26:32.775Z,75.66
2023-02-03T11:29:01.203Z,75.79
2023-02-03T11:31:49.086Z,76.57
2023-02-03T11:34:19.128Z,76.04
2023-02-03T11:36:45.778Z,76.39
2023-02-03T11:39:29.969Z,76.54
2023-02-03T11:41:56.866Z,75.83
2023-02-03T11:44:26.129Z,76.58
2023-02-03T11:47:17.926Z,76.67
2023-02-03T11:49:59.475Z,76.21
2023-02-03T11:52:33.743Z,76.19
2023-02-03T11:55:08.438Z,75.61
2023-02-03T11:57:47.010Z,76.83
2023-02-03T12:00:46.952Z,75.58
2023-02-03T12:03:30.715Z,75.46
2023-02-03T12:06:29.578Z,76.11
2023-02-03T12:09:23.941Z,75.18
2023-02-03T12:12:19.623Z,74.75
2023-02-03T12:14:55.249Z,74.86
2023-02-03T12:17:33.926Z,75.71
2023-02-03T12:20:32.051Z,75.16
2023-02-03T12:23:23.711Z,75.03
2023-02-03T12:26:02.674Z,74.40
2023-02-03T12:28:37.310Z,73.57
2023-02-03T12:31:20.823Z,73.09
2023-02-03T12:33:54.434Z,72.82
2023-02-03T12:36:33.753Z,73.06
2023-02-03T12:39:11.409Z,72.67
2023-02-03T12:41:52.021Z,73.87
2023-02-03T12:44:29.397Z,73.15
2023-02-03T12:47:04.948Z,73.39
2023-02-03T12:49:43.779Z,72.75
2023-02-03T12:52:14.563Z,73.49
2023-02-03T12:54:50.671Z,73.11
2023-02-03T12:57:25.325Z,73.95
2023-02-03T13:00:07.248Z,74.85
2023-02-03T13:02:59.214Z,75.07
2023-02-03T13:05:41.009Z,75.53
2023-02-03T13:08:16.813Z,75.02
2023-02-03T13:11:15.426Z,73.31
2023-02-03T13:13:48.630Z,73.70
2023-02-03T13:16:19.915Z,73.79
2023-02-03T13:18:53.822Z,73.74
2023-02-03T13:21:20.569Z,73.79
2023-02-03T13:23:51.483Z,74.05
2023-02-03T13:26:33.401Z,74.46
2023-02-03T13:29:50.568Z,74.81
2023-02-03T13:32:59.242Z,74.22
2023-02-03T13:35:52.631Z,73.68
2023-02-03T13:38:26.583Z,75.07
2023-02-03T13:41:15.961Z,74.77
2023-02-03T13:43:48.696Z,74.14
2023-02-03T13:46:36.157Z,74.94
2023-02-03T13:49:08.763Z,75.18
2023-02-03T13:51:46.053Z,74.75
2023-02-03T13:54:27.545Z,74.18
2023-02-03T13:57:00.011Z,74.19
2023-02-03T13:59:53.096Z,74.45
2023-02-03T14:02:19.724Z,74.01
2023-02-03T14:04:46.353Z,73.19
2023-02-03T14:07:34.032Z,74.79
2023-02-03T14:10:13.122Z,73.83
2023-02-03T14:12:51.860Z,74.04
2023-02-03T14:15:18.487Z,74.34
2023-02-03T14:17:45.196Z,74.25
2023-02-03T14:20:26.742Z,74.30
2023-02-03T14:22:55.413Z,74.60
2023-02-03T14:25:22.423Z,74.07
2023-02-03T14:28:00.705Z,74.28
2023-02-03T14:30:27.585Z,74.38
2023-02-03T14:32:57.895Z,74.46
2023-02-03T14:35:36.552Z,74.23
2023-02-03T14:38:07.299Z,75.07
2023-02-03T14:40:51.826Z,74.06
2023-02-03T14:43:26.920Z,74.61
2023-02-03T14:46:04.801Z,73.50
2023-02-03T14:48:46.736Z,73.20
2023-02-03T14:51:32.055Z,73.66
2023-02-03T14:54:45.653Z,75.01
2023-02-03T14:58:02.787Z,74.64
2023-02-03T15:00:34.129Z,74.90
2023-02-03T15:03:06.875Z,74.35
2023-02-03T15:05:48.365Z,75.18
2023-02-03T15:08:43.138Z,75.37
2023-02-03T15:11:27.792Z,74.62
2023-02-03T15:13:56.875Z,74.53
2023-02-03T15:16:25.114Z,74.94
2023-02-03T15:18:57.963Z,74.53
2023-02-03T15:21:25.591Z,74.08
2023-02-03T15:23:53.540Z,74.08
2023-02-03T15:26:24.188Z,74.68
2023-02-03T15:29:02.563Z,75.33
2023-02-03T15:31:34.237Z,74.96
2023-02-03T15:34:18.831Z,75.16
2023-02-03T15:36:51.865Z,75.75
2023-02-03T15:39:45.972Z,76.15
2023-02-03T15:42:24.398Z,75.07
2023-02-03T15:45:03.197Z,74.73
2023-02-03T15:47:35.370Z,75.17
2023-02-03T15:50:15.570Z,75.35
2023-02-03T15:52:44.354Z,74.81
2023-02-03T15:55:20.789Z,74.47
2023-02-03T15:57:49.885Z,75.02
2023-02-03T16:00:33.310Z,75.22
2023-02-03T16:03:00.783Z,74.97
2023-02-03T16:05:33.812Z,74.48
2023-02-03T16:08:39.716Z,75.71
2023-02-03T16:11:36.656Z,75.28
2023-02-03T16:14:10.648Z,75.54
2023-02-03T16:16:49.397Z,75.67
2023-02-03T16:19:23.392Z,75.62
2023-02-03T16:21:49.976Z,75.61
2023-02-03T16:24:40.940Z,75.31
2023-02-03T16:27:19.997Z,75.67
2023-02-03T16:30:05.584Z,75.55
2023-02-03T16:32:50.813Z,76.20
2023-02-03T16:35:36.122Z,75.41
2023-02-03T16:38:26.465Z,75.89
2023-02-03T16:41:11.712Z,76.14
2023-02-03T16:43:57.073Z,76.33
2023-02-03T16:46:42.424Z,76.37
2023-02-03T16:49:27.581Z,77.07
2023-02-03T16:51:54.264Z,76.10
2023-02-03T16:54:20.934Z,75.91
2023-02-03T16:56:47.662Z,76.51
2023-02-03T16:59:14.471Z,75.91
2023-02-03T17:01:41.280Z,76.88
2023-02-03T17:04:08.250Z,76.50
2023-02-03T17:06:38.171Z,78.09
2023-02-03T17:09:04.900Z,77.21
2023-02-03T17:11:31.594Z,76.65
2023-02-03T17:13:58.436Z,77.54
2023-02-03T17:16:26.978Z,77.38
2023-02-03T17:18:54.929Z,78.04
2023-02-03T17:21:27.777Z,77.67
2023-02-03T17:23:55.278Z,77.19
2023-02-03T17:26:21.905Z,77.65
2023-02-03T17:28:48.621Z,77.11
2023-02-03T17:31:18.833Z,77.42
2023-02-03T17:33:46.275Z,77.96
2023-02-03T17:36:16.062Z,78.27
2023-02-03T17:55:13.239Z,77.57
2023-02-03T17:57:40.088Z,77.85
2023-02-03T18:00:07.830Z,78.23
2023-02-03T18:02:41.411Z,77.22
2023-02-03T18:05:08.128Z,77.79
2023-02-03T18:07:34.972Z,77.84
2023-02-03T18:10:01.635Z,77.55
2023-02-03T18:12:28.298Z,79.14
2023-02-03T18:14:55.403Z,78.56
2023-02-03T18:17:22.615Z,79.07
2023-02-03T18:19:55.805Z,77.85
2023-02-03T18:22:23.746Z,77.38
2023-02-03T18:24:54.800Z,78.35
2023-02-03T18:27:24.056Z,77.46
2023-02-03T18:29:50.701Z,77.60
2023-02-03T18:32:17.386Z,77.63
2023-02-03T18:34:44.107Z,77.57
2023-02-03T18:37:11.433Z,77.71
2023-02-03T18:39:38.136Z,77.99
2023-02-03T18:42:07.032Z,78.10
2023-02-03T18:44:33.959Z,77.48
2023-02-03T18:47:06.802Z,77.21
2023-02-03T18:49:35.915Z,77.56
2023-02-03T18:52:02.894Z,77.55
2023-02-03T18:54:29.756Z,77.42
2023-02-03T18:56:58.912Z,77.58
2023-02-03T18:59:26.169Z,77.32
2023-02-03T19:01:53.080Z,77.73
2023-02-03T19:04:20.041Z,77.33
2023-02-03T19:06:47.542Z,76.92
2023-02-03T19:09:16.982Z,76.82
2023-02-03T19:11:44.390Z,76.82
2023-02-03T19:14:13.448Z,76.73
2023-02-03T19:16:40.212Z,77.16
2023-02-03T19:19:06.855Z,76.52
2023-02-03T19:21:33.539Z,77.46
2023-02-03T19:24:00.320Z,76.79
2023-02-03T19:26:27.815Z,77.58
2023-02-03T19:28:55.896Z,77.37
2023-02-03T19:31:22.855Z,77.29
2023-02-03T19:33:49.838Z,77.27
2023-02-03T19:36:16.616Z,77.20
2023-02-03T19:38:43.484Z,77.07
2023-02-03T19:41:11.600Z,76.80
2023-02-03T19:43:39.905Z,77.06
2023-02-03T19:46:07.325Z,77.67
2023-02-03T19:48:34.212Z,78.28
2023-02-03T19:51:00.935Z,77.25
2023-02-03T19:53:27.667Z,76.61
2023-02-03T19:55:54.527Z,76.72
2023-02-03T19:58:21.369Z,76.44
2023-02-03T20:00:47.994Z,76.91
2023-02-03T20:03:17.158Z,75.79
2023-02-03T20:05:43.932Z,75.95
2023-02-03T20:08:13.007Z,76.86
2023-02-03T20:10:40.604Z,76.88
2023-02-03T20:13:07.454Z,76.15
2023-02-03T20:15:34.134Z,76.37
2023-02-03T20:18:04.405Z,75.95
2023-02-03T20:20:31.342Z,77.09
2023-02-03T20:22:58.360Z,76.64
2023-02-03T20:25:25.094Z,75.94
2023-02-03T20:27:51.820Z,75.93
2023-02-03T20:30:18.463Z,76.51
2023-02-03T20:32:45.203Z,75.61
2023-02-03T20:35:12.662Z,75.41
2023-02-03T20:37:39.532Z,75.72
2023-02-03T20:40:17.219Z,75.77
2023-02-03T20:42:43.978Z,75.29
2023-02-03T20:45:14.249Z,74.96
2023-02-03T20:47:41.498Z,74.66
2023-02-03T20:50:20.552Z,75.44
2023-02-03T20:52:49.167Z,75.14
2023-02-03T20:55:22.404Z,75.52
2023-02-03T20:57:54.957Z,75.26
2023-02-03T21:00:24.806Z,74.81
2023-02-03T21:03:11.194Z,75.34
2023-02-03T21:05:41.983Z,75.11
2023-02-03T21:08:19.862Z,75.26
2023-02-03T21:10:48.037Z,75.02
2023-02-03T21:13:21.994Z,74.71
2023-02-03T21:15:56.116Z,74.51
2023-02-03T21:18:29.292Z,75.01
2023-02-03T21:20:59.151Z,75.31
2023-02-03T21:23:35.804Z,74.90
2023-02-03T21:26:13.902Z,75.63
2023-02-03T21:28:40.588Z,75.48
2023-02-03T21:31:22.256Z,74.79
2023-02-03T21:33:49.062Z,75.92
2023-02-03T21:36:21.650Z,75.25
2023-02-03T21:38:50.570Z,74.86
2023-02-03T21:41:22.057Z,75.11
2023-02-03T21:43:53.784Z,74.78
2023-02-03T21:46:26.830Z,74.96
2023-02-03T21:48:58.024Z,75.10
2023-02-03T21:51:27.962Z,74.92
2023-02-03T21:54:03.475Z,74.02
2023-02-03T21:56:39.932Z,74.15
2023-02-03T21:59:24.290Z,74.07
2023-02-03T22:01:52.969Z,74.14
2023-02-03T22:04:19.801Z,75.32
2023-02-03T22:06:50.865Z,74.64
2023-02-03T22:09:25.495Z,74.31
2023-02-03T22:11:53.046Z,74.63
2023-02-03T22:14:21.088Z,74.32
2023-02-03T22:16:47.975Z,74.22
2023-02-03T22:19:17.362Z,74.52
2023-02-03T22:21:44.756Z,73.60
2023-02-03T22:24:11.538Z,73.57
2023-02-03T22:26:38.634Z,73.44
2023-02-03T22:29:05.632Z,72.85
2023-02-03T22:31:32.703Z,73.44
2023-02-03T22:33:59.524Z,73.47
2023-02-03T22:36:26.183Z,74.12
2023-02-03T22:38:52.955Z,74.01
2023-02-03T22:41:20.934Z,74.47
2023-02-03T22:43:47.716Z,74.03
2023-02-03T22:46:14.460Z,74.24
2023-02-03T22:48:41.173Z,73.46
2023-02-03T22:51:08.132Z,73.38
2023-02-03T22:53:34.969Z,73.74
2023-02-03T22:56:01.815Z,74.39
2023-02-03T22:58:28.490Z,73.02
2023-02-03T23:00:55.218Z,73.47
2023-02-03T23:03:22.063Z,73.79
2023-02-03T23:05:48.775Z,73.58
2023-02-03T23:08:15.630Z,73.87
2023-02-03T23:10:42.319Z,73.41
2023-02-03T23:13:09.076Z,74.15
2023-02-03T23:15:35.775Z,73.11
2023-02-03T23:18:02.466Z,73.47
2023-02-03T23:20:29.555Z,73.42
2023-02-03T23:22:56.530Z,73.32
2023-02-03T23:25:23.249Z,73.26
2023-02-03T23:27:49.997Z,72.83
2023-02-03T23:30:16.708Z,73.11
2023-02-03T23:32:43.357Z,72.87
2023-02-03T23:35:28.663Z,72.83
2023-02-03T23:37:55.282Z,73.93
2023-02-03T23:40:22.119Z,73.27
2023-02-03T23:42:48.962Z,73.35
2023-02-03T23:45:16.212Z,73.28
2023-02-03T23:47:44.540Z,73.22
2023-02-03T23:50:14.442Z,72.69
2023-02-03T23:52:41.199Z,73.52
2023-02-03T23:55:11.650Z,74.01
2023-02-03T23:57:38.365Z,73.92
